createdAt,value
2022-11-23T00:01:20.082Z,20.20
2022-11-23T00:03:49.383Z,20.20
2022-11-23T00:06:16.995Z,20.20
2022-11-23T00:08:44.682Z,20.20
2022-11-23T00:11:11.737Z,20.20
2022-11-23T00:13:40.783Z,20.20
2022-11-23T00:16:09.518Z,20.20
2022-11-23T00:18:36.739Z,20.20
2022-11-23T00:21:11.607Z,20.20
2022-11-23T00:23:38.487Z,20.20
2022-11-23T00:26:06.608Z,20.20
2022-11-23T00:28:35.013Z,20.20
2022-11-23T00:31:01.826Z,20.20
2022-11-23T00:33:28.633Z,20.20
2022-11-23T00:36:02.345Z,20.20
2022-11-23T00:38:29.539Z,20.20
2022-11-23T00:41:00.122Z,20.20
2022-11-23T00:43:28.030Z,20.20
2022-11-23T00:46:27.047Z,20.20
2022-11-23T00:48:56.382Z,20.20
2022-11-23T00:51:28.822Z,20.20
2022-11-23T00:53:55.928Z,20.20
2022-11-23T00:56:22.835Z,20.20
2022-11-23T00:58:50.847Z,20.20
2022-11-23T01:01:20.181Z,20.20
2022-11-23T01:03:52.714Z,20.20
2022-11-23T01:06:25.526Z,20.20
2022-11-23T01:08:57.629Z,20.20
2022-11-23T01:11:26.698Z,20.20
2022-11-23T01:13:53.579Z,20.20
2022-11-23T01:16:24.451Z,20.20
2022-11-23T01:18:55.326Z,20.20
2022-11-23T01:21:22.907Z,20.20
2022-11-23T01:23:49.865Z,20.20
2022-11-23T01:26:17.006Z,20.20
2022-11-23T01:28:43.806Z,20.20
2022-11-23T01:31:13.969Z,20.10
2022-11-23T01:33:41.746Z,20.20
2022-11-23T01:36:17.133Z,20.10
2022-11-23T01:38:44.747Z,20.10
2022-11-23T01:41:27.222Z,20.20
2022-11-23T01:43:55.011Z,20.20
2022-11-23T01:46:22.594Z,20.10
2022-11-23T01:49:02.117Z,20.10
2022-11-23T01:51:39.438Z,20.10
2022-11-23T01:54:22.512Z,20.10
2022-11-23T01:56:55.380Z,20.10
2022-11-23T01:59:23.452Z,20.10
2022-11-23T02:01:50.213Z,20.10
2022-11-23T02:04:23.621Z,20.10
2022-11-23T02:06:52.239Z,20.10
2022-11-23T02:09:20.099Z,20.10
2022-11-23T02:11:46.903Z,20.10
2022-11-23T02:14:16.824Z,20.10
2022-11-23T02:16:47.256Z,20.10
2022-11-23T02:19:28.329Z,20.10
2022-11-23T02:21:56.259Z,20.10
2022-11-23T02:24:32.670Z,20.10
2022-11-23T02:26:59.805Z,20.10
2022-11-23T02:29:28.450Z,20.10
2022-11-23T02:31:55.490Z,20.10
2022-11-23T02:34:22.311Z,20.10
2022-11-23T02:36:54.314Z,20.10
2022-11-23T02:39:33.251Z,20.10
2022-11-23T02:42:00.883Z,20.10
2022-11-23T02:44:48.593Z,20.10
2022-11-23T02:47:15.427Z,20.10
2022-11-23T02:49:45.487Z,20.10
2022-11-23T02:52:12.307Z,20.10
2022-11-23T02:54:39.207Z,20.00
2022-11-23T02:57:06.594Z,20.10
2022-11-23T02:59:34.329Z,20.10
2022-11-23T03:02:02.993Z,20.00
2022-11-23T03:04:29.917Z,20.00
2022-11-23T03:06:56.885Z,20.00
2022-11-23T03:09:26.191Z,20.00
2022-11-23T03:11:54.014Z,20.10
2022-11-23T03:14:21.374Z,20.00
2022-11-23T03:16:48.265Z,20.00
2022-11-23T03:19:15.657Z,20.00
2022-11-23T03:21:42.428Z,20.00
2022-11-23T03:24:09.220Z,20.00
2022-11-23T03:26:36.093Z,20.00
2022-11-23T03:29:03.236Z,20.00
2022-11-23T03:31:30.025Z,20.00
2022-11-23T03:33:56.771Z,20.00
2022-11-23T03:36:23.567Z,20.00
2022-11-23T03:38:50.335Z,20.00
2022-11-23T03:41:17.119Z,20.00
2022-11-23T03:43:43.952Z,20.00
2022-11-23T03:46:10.748Z,20.00
2022-11-23T03:48:38.105Z,20.00
2022-11-23T03:51:05.107Z,20.00
2022-11-23T03:53:31.909Z,20.00
2022-11-23T03:55:58.712Z,20.00
2022-11-23T03:58:51.846Z,20.00
2022-11-23T04:01:18.740Z,20.00
2022-11-23T04:03:45.562Z,20.00
2022-11-23T04:06:12.385Z,20.00
2022-11-23T04:08:39.184Z,20.00
2022-11-23T04:11:06.076Z,20.00
2022-11-23T04:13:32.809Z,20.00
2022-11-23T04:15:59.773Z,20.00
2022-11-23T04:18:26.597Z,20.00
2022-11-23T04:20:53.386Z,20.00
2022-11-23T04:23:21.587Z,20.00
2022-11-23T04:25:49.559Z,20.00
2022-11-23T04:28:16.305Z,20.00
2022-11-23T04:30:43.095Z,20.00
2022-11-23T04:33:09.839Z,20.00
2022-11-23T04:35:37.146Z,20.10
2022-11-23T04:38:04.094Z,20.00
2022-11-23T04:40:31.752Z,20.00
2022-11-23T04:43:01.554Z,20.10
2022-11-23T04:45:28.869Z,20.00
2022-11-23T04:47:55.832Z,20.10
2022-11-23T04:50:22.655Z,20.10
2022-11-23T04:52:49.718Z,20.10
2022-11-23T04:55:16.667Z,20.10
2022-11-23T04:57:43.450Z,20.10
2022-11-23T05:00:10.842Z,20.10
2022-11-23T05:02:38.220Z,20.10
2022-11-23T05:05:05.377Z,20.10
2022-11-23T05:07:32.202Z,20.10
2022-11-23T05:09:59.002Z,20.10
2022-11-23T05:12:25.809Z,20.10
2022-11-23T05:14:52.700Z,20.10
2022-11-23T05:17:19.663Z,20.10
2022-11-23T05:19:47.515Z,20.10
2022-11-23T05:22:14.316Z,20.10
2022-11-23T05:24:41.182Z,20.20
2022-11-23T05:27:07.941Z,20.10
2022-11-23T05:29:35.184Z,20.20
2022-11-23T05:32:02.074Z,20.20
2022-11-23T05:34:28.874Z,20.20
2022-11-23T05:36:55.670Z,20.20
2022-11-23T05:39:23.274Z,20.20
2022-11-23T05:41:50.011Z,20.20
2022-11-23T05:44:16.802Z,20.20
2022-11-23T05:46:43.554Z,20.20
2022-11-23T05:49:10.447Z,20.20
2022-11-23T05:51:37.426Z,20.20
2022-11-23T05:54:04.310Z,20.20
2022-11-23T05:56:33.671Z,20.20
2022-11-23T05:59:03.531Z,20.20
2022-11-23T06:01:30.353Z,20.30
2022-11-23T06:03:57.594Z,20.20
2022-11-23T06:06:24.459Z,20.20
2022-11-23T06:08:51.261Z,20.20
2022-11-23T06:11:18.243Z,20.30
2022-11-23T06:13:48.023Z,20.30
2022-11-23T06:16:14.835Z,20.30
2022-11-23T06:18:41.703Z,20.30
2022-11-23T06:21:08.527Z,20.30
2022-11-23T06:23:35.342Z,20.30
2022-11-23T06:26:02.562Z,20.30
2022-11-23T06:28:29.533Z,20.30
2022-11-23T06:31:01.275Z,20.30
2022-11-23T06:33:28.015Z,20.30
2022-11-23T06:35:57.373Z,20.30
2022-11-23T06:38:24.569Z,20.30
2022-11-23T06:40:51.326Z,20.30
2022-11-23T06:43:18.315Z,20.30
2022-11-23T06:45:45.496Z,20.30
2022-11-23T06:48:12.352Z,20.30
2022-11-23T06:50:40.975Z,20.30
2022-11-23T06:53:12.254Z,20.30
2022-11-23T06:55:39.735Z,20.30
2022-11-23T06:58:07.195Z,20.40
2022-11-23T07:00:34.245Z,20.40
2022-11-23T07:03:01.182Z,20.40
2022-11-23T07:05:28.402Z,20.40
2022-11-23T07:07:55.204Z,20.40
2022-11-23T07:10:22.098Z,20.40
2022-11-23T07:12:48.905Z,20.40
2022-11-23T07:15:15.895Z,20.40
2022-11-23T07:17:44.662Z,20.30
2022-11-23T07:20:12.882Z,20.40
2022-11-23T07:22:39.832Z,20.30
2022-11-23T07:25:06.954Z,20.40
2022-11-23T07:27:33.946Z,20.30
2022-11-23T07:30:00.785Z,20.30
2022-11-23T07:32:27.895Z,20.30
2022-11-23T07:34:54.752Z,20.30
2022-11-23T07:37:21.562Z,20.40
2022-11-23T07:39:57.480Z,20.30
2022-11-23T07:42:33.491Z,20.30
2022-11-23T07:45:04.406Z,20.30
2022-11-23T07:47:31.886Z,20.30
2022-11-23T07:49:58.919Z,20.30
2022-11-23T07:52:25.974Z,20.30
2022-11-23T07:54:52.783Z,20.40
2022-11-23T07:57:19.578Z,20.40
2022-11-23T07:59:46.407Z,20.40
2022-11-23T08:02:15.357Z,20.30
2022-11-23T08:04:42.198Z,20.30
2022-11-23T08:07:09.027Z,20.30
2022-11-23T08:09:35.976Z,20.30
2022-11-23T08:12:03.230Z,20.30
2022-11-23T08:14:30.522Z,20.30
2022-11-23T08:16:57.676Z,20.30
2022-11-23T08:19:24.480Z,20.30
2022-11-23T08:21:51.291Z,20.30
2022-11-23T08:24:18.117Z,20.30
2022-11-23T08:26:44.914Z,20.30
2022-11-23T08:29:11.808Z,20.30
2022-11-23T08:31:38.648Z,20.30
2022-11-23T08:34:05.451Z,20.30
2022-11-23T08:36:32.287Z,20.30
2022-11-23T08:38:59.086Z,20.30
2022-11-23T08:41:26.127Z,20.30
2022-11-23T08:43:53.483Z,20.30
2022-11-23T08:46:20.387Z,20.30
2022-11-23T08:48:47.190Z,20.30
2022-11-23T08:51:14.252Z,20.30
2022-11-23T08:53:41.069Z,20.30
2022-11-23T08:56:08.606Z,20.30
2022-11-23T08:58:36.843Z,20.30
2022-11-23T09:01:09.146Z,20.30
2022-11-23T09:03:36.062Z,20.30
2022-11-23T09:06:03.055Z,20.30
2022-11-23T09:08:30.571Z,20.30
2022-11-23T09:11:05.642Z,20.30
2022-11-23T09:13:34.773Z,20.30
2022-11-23T09:16:02.695Z,20.30
2022-11-23T09:18:30.698Z,20.30
2022-11-23T09:20:58.195Z,20.30
2022-11-23T09:23:27.072Z,20.30
2022-11-23T09:25:53.922Z,20.30
2022-11-23T09:28:20.766Z,20.30
2022-11-23T09:30:48.159Z,20.30
2022-11-23T09:33:14.995Z,20.30
2022-11-23T09:35:43.955Z,20.30
2022-11-23T09:38:11.539Z,20.20
2022-11-23T09:40:40.834Z,20.20
2022-11-23T09:43:37.549Z,20.20
2022-11-23T09:46:13.824Z,20.20
2022-11-23T09:48:50.209Z,20.20
2022-11-23T09:51:23.327Z,20.30
2022-11-23T09:54:24.762Z,20.20
2022-11-23T09:57:00.021Z,20.20
2022-11-23T09:59:47.439Z,20.20
2022-11-23T10:02:25.947Z,20.20
2022-11-23T10:04:54.089Z,20.20
2022-11-23T10:07:20.882Z,20.20
2022-11-23T10:10:08.868Z,20.20
2022-11-23T10:12:43.346Z,20.20
2022-11-23T10:15:26.632Z,20.20
2022-11-23T10:17:59.107Z,20.20
2022-11-23T10:20:59.403Z,20.20
2022-11-23T10:23:26.207Z,20.20
2022-11-23T10:25:53.736Z,20.20
2022-11-23T10:28:23.269Z,20.20
2022-11-23T10:31:13.457Z,20.20
2022-11-23T10:34:04.602Z,20.20
2022-11-23T10:36:31.357Z,20.20
2022-11-23T10:39:00.653Z,20.20
2022-11-23T10:41:30.419Z,20.20
2022-11-23T10:44:16.383Z,20.20
2022-11-23T10:46:43.340Z,20.20
2022-11-23T10:49:20.288Z,20.10
2022-11-23T10:52:03.688Z,20.20
2022-11-23T10:54:35.391Z,20.20
2022-11-23T10:57:21.813Z,20.20
2022-11-23T11:00:19.665Z,20.10
2022-11-23T11:02:51.606Z,20.10
2022-11-23T11:08:27.900Z,20.10
2022-11-23T11:10:59.357Z,20.10
2022-11-23T11:13:42.961Z,20.10
2022-11-23T11:16:46.447Z,20.10
2022-11-23T11:19:23.184Z,20.10
2022-11-23T11:21:50.012Z,20.10
2022-11-23T11:24:30.626Z,20.10
2022-11-23T11:27:02.603Z,20.10
2022-11-23T11:29:44.286Z,20.10
2022-11-23T11:32:32.702Z,20.10
2022-11-23T11:35:20.408Z,20.10
2022-11-23T11:37:52.538Z,20.10
2022-11-23T11:40:19.486Z,20.10
2022-11-23T11:43:15.464Z,20.10
2022-11-23T11:46:13.139Z,20.10
2022-11-23T11:48:41.269Z,20.10
2022-11-23T11:51:19.283Z,20.10
2022-11-23T11:54:12.478Z,20.10
2022-11-23T11:56:51.934Z,20.10
2022-11-23T11:59:24.644Z,20.10
2022-11-23T12:01:55.333Z,20.10
2022-11-23T12:04:36.635Z,20.00
2022-11-23T12:07:18.291Z,20.00
2022-11-23T12:09:49.308Z,20.00
2022-11-23T12:12:18.669Z,20.00
2022-11-23T12:14:49.532Z,20.00
2022-11-23T12:17:37.156Z,20.00
2022-11-23T12:20:13.059Z,20.00
2022-11-23T12:23:00.073Z,20.10
2022-11-23T12:25:36.791Z,20.00
2022-11-23T12:28:30.898Z,20.00
2022-11-23T12:31:13.577Z,20.00
2022-11-23T12:34:01.665Z,20.00
2022-11-23T12:37:01.518Z,20.00
2022-11-23T12:39:34.157Z,20.00
2022-11-23T12:42:20.772Z,20.00
2022-11-23T12:44:53.423Z,20.00
2022-11-23T12:47:32.453Z,20.00
2022-11-23T12:50:28.429Z,20.00
2022-11-23T12:53:20.302Z,20.00
2022-11-23T12:55:53.955Z,20.00
2022-11-23T12:58:29.855Z,20.00
2022-11-23T13:01:19.191Z,20.00
2022-11-23T13:04:23.531Z,20.00
2022-11-23T13:07:28.073Z,19.90
2022-11-23T13:09:55.493Z,20.00
2022-11-23T13:12:33.779Z,20.00
2022-11-23T13:15:17.147Z,19.90
2022-11-23T13:17:52.246Z,20.00
2022-11-23T13:20:21.799Z,19.90
2022-11-23T13:22:51.080Z,19.90
2022-11-23T13:25:29.182Z,19.90
2022-11-23T13:28:02.083Z,19.90
2022-11-23T13:30:59.210Z,19.90
2022-11-23T13:33:25.212Z,19.90
2022-11-23T13:35:57.007Z,19.90
2022-11-23T13:38:26.482Z,19.90
2022-11-23T13:40:53.855Z,19.90
2022-11-23T13:43:30.516Z,19.90
2022-11-23T13:46:37.284Z,19.90
2022-11-23T13:49:04.150Z,19.90
2022-11-23T13:51:35.612Z,19.90
2022-11-23T13:54:05.386Z,19.90
2022-11-23T13:56:39.316Z,19.90
2022-11-23T13:59:24.300Z,19.90
2022-11-23T14:02:06.826Z,19.90
2022-11-23T14:04:41.146Z,19.90
2022-11-23T14:07:23.437Z,19.90
2022-11-23T14:10:16.805Z,19.90
2022-11-23T14:13:10.581Z,19.90
2022-11-23T14:15:40.470Z,19.80
2022-11-23T14:18:32.032Z,19.90
2022-11-23T14:21:39.645Z,19.90
2022-11-23T14:24:15.985Z,19.80
2022-11-23T14:27:38.945Z,19.80
2022-11-23T14:30:13.699Z,19.80
2022-11-23T14:33:17.930Z,19.80
2022-11-23T14:36:18.042Z,19.80
2022-11-23T14:39:06.327Z,19.80
2022-11-23T14:41:36.345Z,19.80
2022-11-23T14:44:05.902Z,19.80
2022-11-23T14:46:32.809Z,19.80
2022-11-23T14:49:17.435Z,19.80
2022-11-23T14:51:45.236Z,19.80
2022-11-23T14:54:15.191Z,19.80
2022-11-23T14:56:45.482Z,19.80
2022-11-23T14:59:36.776Z,19.80
2022-11-23T15:02:19.940Z,19.80
2022-11-23T15:05:05.347Z,19.80
2022-11-23T15:07:48.710Z,19.80
2022-11-23T15:10:27.843Z,19.80
2022-11-23T15:12:54.715Z,19.80
2022-11-23T15:15:30.328Z,19.80
2022-11-23T15:17:59.310Z,19.80
2022-11-23T15:20:34.695Z,19.80
2022-11-23T15:23:02.520Z,19.80
2022-11-23T15:25:29.984Z,19.80
2022-11-23T15:27:56.935Z,19.80
2022-11-23T15:30:30.862Z,19.80
2022-11-23T15:33:01.120Z,19.70
2022-11-23T15:35:36.986Z,19.80
2022-11-23T15:38:07.810Z,19.70
2022-11-23T15:40:37.668Z,19.80
2022-11-23T15:43:04.643Z,19.80
2022-11-23T15:45:38.709Z,19.80
2022-11-23T15:48:13.708Z,19.80
2022-11-23T15:50:53.978Z,19.70
2022-11-23T15:53:51.090Z,19.70
2022-11-23T15:56:38.757Z,19.80
2022-11-23T15:59:30.453Z,19.80
2022-11-23T16:01:58.964Z,19.70
2022-11-23T16:04:35.395Z,19.70
2022-11-23T16:07:23.836Z,19.70
2022-11-23T16:10:18.535Z,19.70
2022-11-23T16:12:50.148Z,19.70
2022-11-23T16:15:37.827Z,19.70
2022-11-23T16:18:17.462Z,19.70
2022-11-23T16:21:05.005Z,19.70
2022-11-23T16:23:43.218Z,19.70
2022-11-23T16:26:11.249Z,19.70
2022-11-23T16:28:47.852Z,19.70
2022-11-23T16:31:29.668Z,19.70
2022-11-23T16:33:57.271Z,19.70
2022-11-23T16:36:27.995Z,19.70
2022-11-23T16:38:58.599Z,19.70
2022-11-23T16:41:29.373Z,19.70
2022-11-23T16:43:56.218Z,19.70
2022-11-23T16:46:23.081Z,19.60
2022-11-23T16:48:49.998Z,19.60
2022-11-23T16:51:16.947Z,19.60
2022-11-23T16:54:12.419Z,19.60
2022-11-23T16:56:32.392Z,19.60
2022-11-23T16:59:00.351Z,19.70
2022-11-23T17:01:32.702Z,19.60
2022-11-23T17:03:59.965Z,19.60
2022-11-23T17:06:26.890Z,19.70
2022-11-23T17:09:03.092Z,19.60
2022-11-23T17:11:37.230Z,19.60
2022-11-23T17:14:04.717Z,19.60
2022-11-23T17:16:31.619Z,19.60
2022-11-23T17:18:58.460Z,19.60
2022-11-23T17:21:25.285Z,19.60
2022-11-23T17:23:52.172Z,19.60
2022-11-23T17:26:30.440Z,19.60
2022-11-23T17:32:38.565Z,19.60
2022-11-23T17:35:05.861Z,19.60
2022-11-23T17:37:32.689Z,19.60
2022-11-23T17:39:59.505Z,19.70
2022-11-23T17:42:26.292Z,19.70
2022-11-23T17:44:53.111Z,19.70
2022-11-23T17:47:29.218Z,19.70
2022-11-23T17:49:56.963Z,19.80
2022-11-23T17:52:24.685Z,19.80
2022-11-23T17:54:52.703Z,19.80
2022-11-23T17:57:23.902Z,19.90
2022-11-23T17:59:51.012Z,19.90
2022-11-23T18:02:19.434Z,19.90
2022-11-23T18:04:47.413Z,19.90
2022-11-23T18:07:15.920Z,20.00
2022-11-23T18:09:43.419Z,20.00
2022-11-23T18:12:10.771Z,20.00
2022-11-23T18:14:37.632Z,20.00
2022-11-23T18:17:04.466Z,20.00
2022-11-23T18:19:31.611Z,20.00
2022-11-23T18:21:58.636Z,20.10
2022-11-23T18:24:25.392Z,20.10
2022-11-23T18:26:52.191Z,20.10
2022-11-23T18:29:19.000Z,20.10
2022-11-23T18:31:45.797Z,20.10
2022-11-23T18:34:12.678Z,20.10
2022-11-23T18:36:39.910Z,20.20
2022-11-23T18:39:06.697Z,20.20
2022-11-23T18:41:33.531Z,20.20
2022-11-23T18:44:00.351Z,20.20
2022-11-23T18:46:29.397Z,20.20
2022-11-23T18:48:57.420Z,20.20
2022-11-23T18:51:24.600Z,20.20
2022-11-23T18:53:53.100Z,20.30
2022-11-23T18:56:19.906Z,20.30
2022-11-23T18:58:46.886Z,20.30
2022-11-23T19:01:17.840Z,20.30
2022-11-23T19:03:46.207Z,20.30
2022-11-23T19:06:15.545Z,20.30
2022-11-23T19:08:50.935Z,20.30
2022-11-23T19:11:20.600Z,20.30
2022-11-23T19:13:50.232Z,20.30
2022-11-23T19:16:22.787Z,20.30
2022-11-23T19:19:06.763Z,20.30
2022-11-23T19:21:35.412Z,20.30
2022-11-23T19:24:03.260Z,20.30
2022-11-23T19:26:30.943Z,20.40
2022-11-23T19:28:59.025Z,20.30
2022-11-23T19:31:28.556Z,20.30
2022-11-23T19:34:01.398Z,20.40
2022-11-23T19:36:30.026Z,20.40
2022-11-23T19:38:57.827Z,20.40
2022-11-23T19:41:29.874Z,20.40
2022-11-23T19:43:59.043Z,20.40
2022-11-23T19:46:26.356Z,20.40
2022-11-23T19:48:54.739Z,20.40
2022-11-23T19:51:21.722Z,20.40
2022-11-23T19:53:49.379Z,20.40
2022-11-23T19:56:19.282Z,20.40
2022-11-23T19:58:49.906Z,20.40
2022-11-23T20:01:18.903Z,20.40
2022-11-23T20:03:48.091Z,20.40
2022-11-23T20:06:27.055Z,20.40
2022-11-23T20:08:59.096Z,20.40
2022-11-23T20:11:29.601Z,20.40
2022-11-23T20:13:57.201Z,20.40
2022-11-23T20:16:25.639Z,20.40
2022-11-23T20:18:58.999Z,20.40
2022-11-23T20:21:27.809Z,20.40
2022-11-23T20:24:04.379Z,20.50
2022-11-23T20:26:33.113Z,20.40
2022-11-23T20:28:59.986Z,20.40
2022-11-23T20:31:30.170Z,20.40
2022-11-23T20:33:57.945Z,20.50
2022-11-23T20:36:30.035Z,20.40
2022-11-23T20:38:57.435Z,20.40
2022-11-23T20:41:30.070Z,20.40
2022-11-23T20:43:59.617Z,20.40
2022-11-23T20:49:15.176Z,20.40
2022-11-23T20:51:42.924Z,20.40
2022-11-23T20:54:10.012Z,20.40
2022-11-23T20:56:39.418Z,20.50
2022-11-23T20:59:06.580Z,20.40
2022-11-23T21:01:35.277Z,20.40
2022-11-23T21:04:02.202Z,20.50
2022-11-23T21:06:29.023Z,20.40
2022-11-23T21:08:56.484Z,20.40
2022-11-23T21:11:43.353Z,20.40
2022-11-23T21:14:17.987Z,20.40
2022-11-23T21:16:55.673Z,20.40
2022-11-23T21:19:28.019Z,20.40
2022-11-23T21:21:56.872Z,20.50
2022-11-23T21:24:24.063Z,20.50
2022-11-23T21:26:51.156Z,20.40
2022-11-23T21:29:18.758Z,20.50
2022-11-23T21:31:47.072Z,20.40
2022-11-23T21:34:23.510Z,20.40
2022-11-23T21:36:50.968Z,20.40
2022-11-23T21:39:18.192Z,20.40
2022-11-23T21:41:46.057Z,20.40
2022-11-23T21:44:13.078Z,20.40
2022-11-23T21:46:41.031Z,20.40
2022-11-23T21:49:08.780Z,20.30
2022-11-23T21:51:38.124Z,20.30
2022-11-23T21:54:07.181Z,20.30
2022-11-23T21:56:34.189Z,20.30
2022-11-23T21:59:01.005Z,20.30
2022-11-23T22:01:30.573Z,20.30
2022-11-23T22:04:05.096Z,20.30
2022-11-23T22:06:32.142Z,20.30
2022-11-23T22:09:00.137Z,20.20
2022-11-23T22:11:28.253Z,20.20
2022-11-23T22:13:57.717Z,20.30
2022-11-23T22:16:29.742Z,20.20
2022-11-23T22:18:57.757Z,20.20
2022-11-23T22:21:26.888Z,20.20
2022-11-23T22:23:53.991Z,20.20
2022-11-23T22:26:21.864Z,20.20
2022-11-23T22:28:50.986Z,20.20
2022-11-23T22:31:20.211Z,20.20
2022-11-23T22:33:48.073Z,20.20
2022-11-23T22:36:14.780Z,20.20
2022-11-23T22:38:41.589Z,20.20
2022-11-23T22:41:17.540Z,20.20
2022-11-23T22:43:44.444Z,20.20
2022-11-23T22:46:17.674Z,20.20
2022-11-23T22:48:46.849Z,20.20
2022-11-23T22:51:16.384Z,20.20
2022-11-23T22:53:45.036Z,20.20
2022-11-23T22:56:17.311Z,20.20
2022-11-23T22:58:45.573Z,20.20
2022-11-23T23:01:18.501Z,20.20
2022-11-23T23:03:46.102Z,20.20
2022-11-23T23:06:18.955Z,20.10
2022-11-23T23:08:47.347Z,20.20
2022-11-23T23:11:15.528Z,20.10
2022-11-23T23:13:42.508Z,20.10
2022-11-23T23:16:12.768Z,20.10
2022-11-23T23:18:40.996Z,20.10
2022-11-23T23:21:14.560Z,20.10
2022-11-23T23:23:52.420Z,20.10
2022-11-23T23:26:21.990Z,20.10
2022-11-23T23:28:49.493Z,20.10
2022-11-23T23:31:17.424Z,20.10
2022-11-23T23:33:47.645Z,20.10
2022-11-23T23:36:16.781Z,20.10
2022-11-23T23:38:44.223Z,20.10
2022-11-23T23:41:12.448Z,20.10
2022-11-23T23:43:40.219Z,20.10
2022-11-23T23:46:09.685Z,20.00
2022-11-23T23:48:38.418Z,20.00
2022-11-23T23:51:07.025Z,20.00
2022-11-23T23:53:35.264Z,20.00
2022-11-23T23:56:04.794Z,20.00
2022-11-23T23:58:32.166Z,20.00
